Terminal Aerodrome Forecast
Issued by NWS

Home | Current Version | Previous Version | Text Only | Print | Product List | Glossary On
Versions: 1 2 3 4 5 6 7 8 9 10 11 12 13 14 15
000
FTUS46 KLOX 201200 AAA
TAFSBA
TAF AMD
KSBA 201205Z 2012/2112 VRB05KT P6SM SKC
     FM201800 19005KT P6SM SKC
     FM202100 24007KT P6SM SKC
     FM210200 VRB05KT P6SM SKC=

USA.gov is the U.S. government's official web portal to all federal, state and local government web resources and services.